Time,TemperatureF,DewpointF,PressureIn,WindDirection,WindDirectionDegrees,WindSpeedMPH,WindSpeedGustMPH,Humidity,HourlyPrecipIn,Conditions,Clouds,dailyrainin,SoftwareType,DateUTC
2013-03-25 06:55:00,26.6,23.3,29.79,NNW,328,15.0,23.0,87,0.00,,,0.00,Wunderground v.1.15,2013-03-25 11:55:00,
2013-03-25 07:00:00,26.6,23.3,29.79,NW,321,15.0,15.0,87,0.00,,,0.00,Wunderground v.1.15,2013-03-25 12:00:00,
2013-03-25 07:05:00,26.6,23.3,29.79,NW,321,15.0,19.0,87,0.00,,,0.00,Wunderground v.1.15,2013-03-25 12:05:00,
2013-03-25 07:10:00,26.6,23.3,29.79,NW,326,15.0,15.0,87,0.00,,,0.00,Wunderground v.1.15,2013-03-25 12:10:00,
2013-03-25 07:15:00,26.6,23.3,29.80,NW,319,15.0,15.0,87,0.00,,,0.00,Wunderground v.1.15,2013-03-25 12:15:00,
2013-03-25 07:20:00,26.5,23.2,29.80,NW,316,14.0,14.0,87,0.00,,,0.00,Wunderground v.1.15,2013-03-25 12:20:00,
2013-03-25 07:25:00,26.5,23.2,29.80,NNW,329,15.0,15.0,87,0.00,,,0.00,Wunderground v.1.15,2013-03-25 12:25:00,
2013-03-25 07:30:00,26.5,23.2,29.80,NW,322,15.0,15.0,87,0.00,,,0.00,Wunderground v.1.15,2013-03-25 12:30:00,
2013-03-25 07:35:00,26.5,23.2,29.80,NW,308,15.0,17.0,87,0.00,,,0.00,Wunderground v.1.15,2013-03-25 12:35:00,
2013-03-25 07:40:00,26.4,23.1,29.81,NW,311,15.0,16.0,87,0.00,,,0.00,Wunderground v.1.15,2013-03-25 12:40:00,
2013-03-25 07:45:00,26.4,23.1,29.81,NW,320,15.0,16.0,87,0.00,,,0.00,Wunderground v.1.15,2013-03-25 12:45:00,
2013-03-25 07:50:00,26.4,23.1,29.81,NW,324,15.0,17.0,87,0.00,,,0.00,Wunderground v.1.15,2013-03-25 12:50:00,
2013-03-25 07:55:00,26.5,23.2,29.81,NW,323,15.0,18.0,87,0.00,,,0.00,Wunderground v.1.15,2013-03-25 12:55:00,
2013-03-25 08:00:00,26.5,23.2,29.82,NW,322,15.0,16.0,87,0.00,,,0.00,Wunderground v.1.15,2013-03-25 13:00:00,
2013-03-25 08:10:00,26.6,23.3,29.82,NW,326,14.0,17.0,87,0.00,,,0.00,Wunderground v.1.15,2013-03-25 13:10:00,
2013-03-25 08:15:00,26.6,23.3,29.83,NNW,331,14.0,17.0,87,0.00,,,0.00,Wunderground v.1.15,2013-03-25 13:15:00,
2013-03-25 08:20:00,26.7,23.4,29.83,NW,316,14.0,14.0,87,0.00,,,0.00,Wunderground v.1.15,2013-03-25 13:20:00,
2013-03-25 08:25:00,26.8,23.4,29.83,NW,316,14.0,15.0,87,0.00,,,0.00,Wunderground v.1.15,2013-03-25 13:25:00,
2013-03-25 12:10:00,32.1,28.1,29.90,NW,308,15.0,15.0,85,0.00,,,0.00,Wunderground v.1.15,2013-03-25 17:10:00,
2013-03-25 12:15:00,32.3,27.7,29.90,NW,319,15.0,16.0,83,0.00,,,0.00,Wunderground v.1.15,2013-03-25 17:15:00,
2013-03-25 12:20:00,32.5,27.9,29.90,NW,315,15.0,15.0,83,0.00,,,0.00,Wunderground v.1.15,2013-03-25 17:20:00,
2013-03-25 12:25:00,32.5,27.6,29.91,NW,322,15.0,17.0,82,0.00,,,0.00,Wunderground v.1.15,2013-03-25 17:25:00,
2013-03-25 12:30:00,32.7,28.4,29.91,NW,317,16.0,16.0,84,0.00,,,0.00,Wunderground v.1.15,2013-03-25 17:30:00,
2013-03-25 12:35:00,32.9,28.3,29.91,NW,322,15.0,16.0,83,0.00,,,0.00,Wunderground v.1.15,2013-03-25 17:35:00,
2013-03-25 12:45:00,33.0,28.4,29.91,NW,310,15.0,17.0,83,0.00,,,0.00,Wunderground v.1.15,2013-03-25 17:45:00,
2013-03-25 12:55:00,33.4,28.5,29.91,NW,314,14.0,14.0,82,0.00,,,0.00,Wunderground v.1.15,2013-03-25 17:55:00,
2013-03-25 13:00:00,33.6,29.0,29.91,NW,315,14.0,16.0,83,0.00,,,0.00,Wunderground v.1.15,2013-03-25 18:00:00,
2013-03-25 13:10:00,34.4,29.5,29.91,NW,318,13.0,14.0,82,0.00,,,0.00,Wunderground v.1.15,2013-03-25 18:10:00,
2013-03-25 13:15:00,34.7,29.8,29.91,NNW,328,13.0,14.0,82,0.00,,,0.00,Wunderground v.1.15,2013-03-25 18:15:00,
2013-03-25 13:20:00,34.9,29.7,29.91,NW,305,14.0,14.0,81,0.00,,,0.00,Wunderground v.1.15,2013-03-25 18:20:00,
2013-03-25 13:25:00,35.0,30.4,29.91,NW,319,14.0,14.0,83,0.00,,,0.00,Wunderground v.1.15,2013-03-25 18:25:00,
2013-03-25 13:30:00,35.1,29.6,29.91,NNW,336,14.0,16.0,80,0.00,,,0.00,Wunderground v.1.15,2013-03-25 18:30:00,
2013-03-25 13:40:00,34.7,29.2,29.92,NNW,328,16.0,16.0,80,0.00,,,0.00,Wunderground v.1.15,2013-03-25 18:40:00,
2013-03-25 14:00:00,34.5,29.6,29.92,NNW,332,14.0,14.0,82,0.00,,,0.00,Wunderground v.1.15,2013-03-25 19:00:00,
2013-03-25 14:10:00,34.1,29.2,29.92,NNW,340,14.0,15.0,82,0.00,,,0.00,Wunderground v.1.15,2013-03-25 19:10:00,
2013-03-25 14:15:00,34.1,29.2,29.92,NNW,328,14.0,15.0,82,0.00,,,0.00,Wunderground v.1.15,2013-03-25 19:15:00,
2013-03-25 14:25:00,34.1,29.5,29.93,NNW,330,13.0,15.0,83,0.00,,,0.00,Wunderground v.1.15,2013-03-25 19:25:00,
2013-03-25 14:30:00,34.0,29.1,29.93,NNW,331,14.0,14.0,82,0.00,,,0.00,Wunderground v.1.15,2013-03-25 19:30:00,
2013-03-25 14:35:00,33.9,29.0,29.93,NNW,331,15.0,15.0,82,0.00,,,0.00,Wunderground v.1.15,2013-03-25 19:35:00,
2013-03-25 14:40:00,34.1,29.8,29.93,North,349,15.0,15.0,84,0.00,,,0.00,Wunderground v.1.15,2013-03-25 19:40:00,
2013-03-25 14:45:00,34.1,29.5,29.93,NW,319,15.0,16.0,83,0.00,,,0.00,Wunderground v.1.15,2013-03-25 19:45:00,
2013-03-25 14:55:00,33.9,29.3,29.94,NNW,336,14.0,14.0,83,0.00,,,0.00,Wunderground v.1.15,2013-03-25 19:55:00,
2013-03-25 15:00:00,34.2,29.3,29.94,NW,305,14.0,14.0,82,0.00,,,0.00,Wunderground v.1.15,2013-03-25 20:00:00,
2013-03-25 15:10:00,34.5,29.9,29.94,NW,325,15.0,15.0,83,0.00,,,0.00,Wunderground v.1.15,2013-03-25 20:10:00,
2013-03-25 15:15:00,34.8,29.9,29.94,NNW,335,14.0,15.0,82,0.00,,,0.00,Wunderground v.1.15,2013-03-25 20:15:00,
2013-03-25 15:20:00,35.0,29.8,29.94,NW,319,15.0,21.0,81,0.00,,,0.00,Wunderground v.1.15,2013-03-25 20:20:00,
2013-03-25 16:25:00,34.4,29.5,29.97,NNW,327,14.0,21.0,82,0.00,,,0.00,Wunderground v.1.15,2013-03-25 21:25:00,
2013-03-25 16:30:00,34.5,29.6,29.98,NNW,336,13.0,13.0,82,0.00,,,0.00,Wunderground v.1.15,2013-03-25 21:30:00,
2013-03-25 16:40:00,34.5,29.6,29.98,NW,326,12.0,12.0,82,0.00,,,0.00,Wunderground v.1.15,2013-03-25 21:40:00,
2013-03-25 16:45:00,34.5,29.6,29.98,NW,320,11.0,14.0,82,0.00,,,0.00,Wunderground v.1.15,2013-03-25 21:45:00,
2013-03-25 16:50:00,34.4,29.5,29.98,NNW,331,11.0,11.0,82,0.00,,,0.00,Wunderground v.1.15,2013-03-25 21:50:00,
2013-03-25 17:00:00,34.4,29.5,29.99,NNW,346,12.0,13.0,82,0.00,,,0.00,Wunderground v.1.15,2013-03-25 22:00:00,
2013-03-25 17:10:00,34.5,29.6,29.99,NW,317,10.0,14.0,82,0.00,,,0.00,Wunderground v.1.15,2013-03-25 22:10:00,
2013-03-25 17:15:00,34.3,28.8,30.00,NNW,335,12.0,14.0,80,0.00,,,0.00,Wunderground v.1.15,2013-03-25 22:15:00,
2013-03-25 17:20:00,34.2,28.4,30.00,NNW,335,13.0,13.0,79,0.00,,,0.00,Wunderground v.1.15,2013-03-25 22:20:00,
2013-03-25 17:25:00,34.1,28.9,30.00,NW,319,12.0,13.0,81,0.00,,,0.00,Wunderground v.1.15,2013-03-25 22:25:00,
2013-03-25 17:35:00,34.0,29.1,30.00,NW,326,10.0,14.0,82,0.00,,,0.00,Wunderground v.1.15,2013-03-25 22:35:00,
2013-03-25 17:40:00,33.9,28.4,30.00,NW,326,11.0,14.0,80,0.00,,,0.00,Wunderground v.1.15,2013-03-25 22:40:00,
2013-03-25 17:45:00,33.8,28.3,30.01,NNW,346,13.0,13.0,80,0.00,,,0.00,Wunderground v.1.15,2013-03-25 22:45:00,
2013-03-25 17:50:00,33.6,27.8,30.01,NNW,335,13.0,16.0,79,0.00,,,0.00,Wunderground v.1.15,2013-03-25 22:50:00,
2013-03-25 17:55:00,33.4,27.6,30.01,NNW,335,13.0,13.0,79,0.00,,,0.00,Wunderground v.1.15,2013-03-25 22:55:00,
2013-03-25 18:00:00,33.2,27.7,30.02,NNW,335,12.0,13.0,80,0.00,,,0.00,Wunderground v.1.15,2013-03-25 23:00:00,
2013-03-25 18:10:00,33.0,28.1,30.02,NNW,338,10.0,11.0,82,0.00,,,0.00,Wunderground v.1.15,2013-03-25 23:10:00,
2013-03-25 18:15:00,32.9,28.0,30.02,NW,317,10.0,14.0,82,0.00,,,0.00,Wunderground v.1.15,2013-03-25 23:15:00,
2013-03-25 18:25:00,32.8,27.3,30.03,NNW,330,12.0,17.0,80,0.00,,,0.00,Wunderground v.1.15,2013-03-25 23:25:00,
2013-03-25 18:30:00,32.8,27.3,30.03,NNW,335,12.0,13.0,80,0.00,,,0.00,Wunderground v.1.15,2013-03-25 23:30:00,
2013-03-25 18:35:00,32.7,27.8,30.04,NNW,330,12.0,13.0,82,0.00,,,0.00,Wunderground v.1.15,2013-03-25 23:35:00,
2013-03-25 19:00:00,32.3,27.4,30.05,NW,319,8.0,8.0,82,0.00,,,0.00,Wunderground v.1.15,2013-03-26 00:00:00,
2013-03-25 19:10:00,32.3,27.4,30.06,NNW,345,9.0,9.0,82,0.00,,,0.00,Wunderground v.1.15,2013-03-26 00:10:00,
2013-03-25 19:15:00,32.3,27.7,30.06,NNW,335,10.0,10.0,83,0.00,,,0.00,Wunderground v.1.15,2013-03-26 00:15:00,
2013-03-25 19:20:00,32.2,27.6,30.06,NW,322,9.0,9.0,83,0.00,,,0.00,Wunderground v.1.15,2013-03-26 00:20:00,
2013-03-25 19:35:00,32.1,27.2,30.07,NNW,328,8.0,8.0,82,0.00,,,0.00,Wunderground v.1.15,2013-03-26 00:35:00,
2013-03-25 19:40:00,32.1,27.2,30.07,NNW,335,8.0,8.0,82,0.00,,,0.00,Wunderground v.1.15,2013-03-26 00:40:00,
2013-03-25 19:50:00,32.1,27.5,30.07,NW,321,9.0,9.0,83,0.00,,,0.00,Wunderground v.1.15,2013-03-26 00:50:00,
2013-03-25 19:55:00,32.1,27.2,30.07,NNW,338,9.0,13.0,82,0.00,,,0.00,Wunderground v.1.15,2013-03-26 00:55:00,
2013-03-25 20:00:00,32.1,26.9,30.07,NNE,19,11.0,15.0,81,0.00,,,0.00,Wunderground v.1.15,2013-03-26 01:00:00,
2013-03-25 20:10:00,32.0,26.8,30.08,NNW,342,11.0,11.0,81,0.00,,,0.00,Wunderground v.1.15,2013-03-26 01:10:00,
2013-03-25 20:20:00,31.8,27.2,30.08,NNW,342,9.0,9.0,83,0.00,,,0.00,Wunderground v.1.15,2013-03-26 01:20:00,
2013-03-25 20:25:00,31.8,26.9,30.08,NNW,338,8.0,9.0,82,0.00,,,0.00,Wunderground v.1.15,2013-03-26 01:25:00,
2013-03-25 20:30:00,31.8,26.9,30.08,NW,322,8.0,8.0,82,0.00,,,0.00,Wunderground v.1.15,2013-03-26 01:30:00,
2013-03-25 20:35:00,31.8,27.2,30.08,NW,316,8.0,8.0,83,0.00,,,0.00,Wunderground v.1.15,2013-03-26 01:35:00,
2013-03-25 20:40:00,31.7,27.1,30.09,NNW,340,7.0,7.0,83,0.00,,,0.00,Wunderground v.1.15,2013-03-26 01:40:00,
2013-03-25 20:45:00,31.7,27.1,30.09,NNW,330,7.0,7.0,83,0.00,,,0.00,Wunderground v.1.15,2013-03-26 01:45:00,
2013-03-25 20:55:00,31.6,27.6,30.09,NW,308,5.0,6.0,85,0.00,,,0.00,Wunderground v.1.15,2013-03-26 01:55:00,
2013-03-25 21:00:00,31.6,27.6,30.09,NW,312,5.0,5.0,85,0.00,,,0.00,Wunderground v.1.15,2013-03-26 02:00:00,